Time;durP1;ratioP1;P1;durP2;ratioP2;P2;SDS_P1;SDS_P2;PMS_P1;PMS_P2;Temp;Humidity;BMP_temperature;BMP_pressure;BME280_temperature;BME280_humidity;BME280_pressure;Samples;Min_cycle;Max_cycle;Signal;HPM_P1;HPM_P2
2020/12/29 00:00:10;;;;;;;12.63;7.73;;;3.10;99.90;;;;;;5006444;28;20410;-51
2020/12/29 00:02:36;;;;;;;13.70;8.20;;;3.10;99.90;;;;;;5023389;28;20172;-46
2020/12/29 00:05:02;;;;;;;10.63;8.07;;;3.10;99.90;;;;;;5019361;28;20406;-47
2020/12/29 00:07:27;;;;;;;11.30;8.00;;;3.10;99.90;;;;;;5017455;28;20689;-46
2020/12/29 00:09:53;;;;;;;12.23;8.10;;;3.10;99.90;;;;;;5000512;28;20204;-46
2020/12/29 00:12:18;;;;;;;11.50;7.63;;;3.10;99.90;;;;;;4993044;28;20227;-50
2020/12/29 00:14:44;;;;;;;9.87;7.60;;;3.10;99.90;;;;;;4996907;28;20188;-51
2020/12/29 00:17:09;;;;;;;10.00;7.43;;;3.00;99.90;;;;;;5001457;28;20172;-51
2020/12/29 00:19:34;;;;;;;11.47;8.60;;;3.00;99.90;;;;;;5003716;28;20719;-47
2020/12/29 00:22:00;;;;;;;12.03;8.37;;;3.00;99.90;;;;;;5001955;28;20247;-51
2020/12/29 00:24:25;;;;;;;9.93;7.67;;;3.00;99.90;;;;;;5006445;28;20330;-48
2020/12/29 00:26:51;;;;;;;12.70;7.80;;;2.90;99.90;;;;;;5004372;28;20181;-47
2020/12/29 00:29:16;;;;;;;10.43;7.43;;;2.90;99.90;;;;;;4993866;28;20848;-49
2020/12/29 00:31:42;;;;;;;10.07;7.10;;;2.90;99.90;;;;;;5003143;28;20707;-45
2020/12/29 00:34:08;;;;;;;8.63;6.43;;;2.80;99.90;;;;;;5003733;28;20223;-52
2020/12/29 00:36:33;;;;;;;8.30;6.50;;;2.80;99.90;;;;;;5006821;28;20836;-51
2020/12/29 00:38:59;;;;;;;8.13;6.23;;;2.70;99.90;;;;;;5001653;28;20563;-52
2020/12/29 00:41:25;;;;;;;9.23;6.53;;;2.60;99.90;;;;;;5004481;28;20616;-45
2020/12/29 00:43:51;;;;;;;9.03;6.63;;;2.60;99.90;;;;;;4995653;28;20211;-44
2020/12/29 00:46:19;;;;;;;8.70;6.13;;;2.50;99.90;;;;;;5001712;28;20193;-47
2020/12/29 00:48:45;;;;;;;7.97;6.60;;;2.40;99.90;;;;;;4982357;28;20618;-47
2020/12/29 00:51:17;;;;;;;8.63;6.13;;;2.40;99.90;;;;;;4981747;28;20224;-46
2020/12/29 00:53:42;;;;;;;7.97;6.20;;;2.40;99.90;;;;;;4986487;28;20234;-48
2020/12/29 00:56:09;;;;;;;8.27;6.23;;;2.30;99.90;;;;;;5000596;28;20369;-50
2020/12/29 00:58:35;;;;;;;9.93;6.43;;;2.30;99.90;;;;;;5003547;28;20645;-50
2020/12/29 01:01:02;;;;;;;8.40;6.17;;;2.30;99.90;;;;;;4987693;28;20548;-45
2020/12/29 01:03:27;;;;;;;7.90;5.93;;;2.30;99.90;;;;;;5003422;28;20322;-45
2020/12/29 01:05:53;;;;;;;7.50;6.27;;;2.20;99.90;;;;;;5000089;28;20263;-51
2020/12/29 01:08:20;;;;;;;8.80;6.00;;;2.20;99.90;;;;;;5002804;28;20191;-47
2020/12/29 01:10:45;;;;;;;7.80;6.27;;;2.20;99.90;;;;;;5001361;28;20196;-47
2020/12/29 01:13:12;;;;;;;8.07;5.77;;;2.10;99.90;;;;;;5001072;28;20573;-51
2020/12/29 01:15:38;;;;;;;7.03;6.03;;;2.10;99.90;;;;;;4992263;28;20200;-47
2020/12/29 01:18:04;;;;;;;8.43;6.70;;;2.00;99.90;;;;;;5000065;28;20176;-51
2020/12/29 01:20:29;;;;;;;7.23;5.77;;;2.00;99.90;;;;;;5004773;28;20290;-49
2020/12/29 01:22:56;;;;;;;9.27;6.47;;;1.90;99.90;;;;;;5001988;28;20189;-44
2020/12/29 01:25:23;;;;;;;7.17;5.80;;;1.90;99.90;;;;;;5005826;28;20590;-44
2020/12/29 01:27:49;;;;;;;8.70;5.87;;;1.90;99.90;;;;;;5000943;28;20537;-52
2020/12/29 01:30:15;;;;;;;9.63;6.50;;;1.90;99.90;;;;;;5001574;28;20440;-49
2020/12/29 01:32:41;;;;;;;8.43;6.27;;;1.90;99.90;;;;;;4991746;28;20199;-46
2020/12/29 01:35:08;;;;;;;9.70;6.43;;;1.90;99.90;;;;;;4999938;28;20571;-46
2020/12/29 01:37:34;;;;;;;8.43;5.93;;;1.80;99.90;;;;;;5002390;28;20191;-45
2020/12/29 01:40:00;;;;;;;6.87;5.27;;;1.80;99.90;;;;;;4998578;28;20505;-47
2020/12/29 01:42:26;;;;;;;9.87;6.80;;;1.80;99.90;;;;;;5003132;28;20241;-44
2020/12/29 01:44:52;;;;;;;7.53;6.17;;;1.80;99.90;;;;;;4999993;28;20199;-45
2020/12/29 01:47:18;;;;;;;8.30;6.23;;;1.80;99.90;;;;;;4991212;28;20207;-48
2020/12/29 01:49:44;;;;;;;10.10;6.67;;;1.80;99.90;;;;;;4995689;28;20231;-47
2020/12/29 01:52:10;;;;;;;8.13;6.33;;;1.70;99.90;;;;;;5002971;28;20275;-53
2020/12/29 01:54:35;;;;;;;8.30;6.17;;;1.70;99.90;;;;;;5003230;28;20194;-47
2020/12/29 01:57:01;;;;;;;8.07;6.53;;;1.70;99.90;;;;;;4998484;28;20253;-46
2020/12/29 01:59:26;;;;;;;8.40;6.50;;;1.70;99.90;;;;;;5003416;28;20207;-49
2020/12/29 02:01:53;;;;;;;10.07;6.37;;;1.70;99.90;;;;;;4994672;28;20557;-44
2020/12/29 02:04:19;;;;;;;7.60;6.77;;;1.70;99.90;;;;;;5003086;28;20230;-45
2020/12/29 02:06:44;;;;;;;9.33;6.37;;;1.70;99.90;;;;;;5003983;28;20184;-46
2020/12/29 02:09:11;;;;;;;10.03;6.03;;;1.70;99.90;;;;;;5000974;28;20832;-44
2020/12/29 02:11:37;;;;;;;10.07;6.97;;;1.70;99.90;;;;;;5003336;28;20532;-45
2020/12/29 02:14:05;;;;;;;7.87;6.30;;;1.70;99.90;;;;;;4998527;28;20189;-48
2020/12/29 02:16:35;;;;;;;8.53;6.63;;;1.70;99.90;;;;;;5003110;28;20180;-48
2020/12/29 02:19:01;;;;;;;10.23;6.87;;;1.60;99.90;;;;;;4987310;28;20826;-53
2020/12/29 02:21:31;;;;;;;8.40;6.37;;;1.60;99.90;;;;;;5004141;28;20199;-46
2020/12/29 02:23:57;;;;;;;9.20;6.63;;;1.60;99.90;;;;;;4998551;28;20208;-45
2020/12/29 02:26:26;;;;;;;9.30;6.73;;;1.60;99.90;;;;;;5003623;28;20266;-45
2020/12/29 02:28:51;;;;;;;8.10;6.90;;;1.60;99.90;;;;;;5003443;28;20661;-45
2020/12/29 02:31:18;;;;;;;9.30;6.73;;;1.60;99.90;;;;;;5005274;28;20363;-44
2020/12/29 02:33:43;;;;;;;8.83;6.47;;;1.60;99.90;;;;;;4994408;28;20195;-45
2020/12/29 02:36:11;;;;;;;8.60;6.13;;;1.60;99.90;;;;;;5003159;28;20329;-44
2020/12/29 02:38:36;;;;;;;8.33;6.20;;;1.60;99.90;;;;;;5006152;28;20195;-44
2020/12/29 02:41:02;;;;;;;8.27;6.20;;;1.60;99.90;;;;;;5001497;28;20861;-50
2020/12/29 02:43:27;;;;;;;7.13;5.67;;;1.60;99.90;;;;;;5006102;28;20335;-48
2020/12/29 02:45:53;;;;;;;8.83;6.90;;;1.60;99.90;;;;;;5002812;28;20173;-48
2020/12/29 02:48:18;;;;;;;9.73;7.00;;;1.60;99.90;;;;;;4994725;28;20192;-47
2020/12/29 02:50:43;;;;;;;8.63;6.30;;;1.60;99.90;;;;;;5004301;28;20187;-48
2020/12/29 02:53:09;;;;;;;9.37;6.97;;;1.60;99.90;;;;;;5002997;28;20185;-46
2020/12/29 02:55:34;;;;;;;8.83;7.20;;;1.60;99.90;;;;;;5005898;28;20576;-45
2020/12/29 02:58:00;;;;;;;9.47;6.60;;;1.60;99.90;;;;;;5001588;28;20261;-45
2020/12/29 03:00:25;;;;;;;8.60;6.43;;;1.60;99.90;;;;;;5005580;28;20355;-46
2020/12/29 03:02:51;;;;;;;9.57;6.93;;;1.60;99.90;;;;;;5003225;28;20656;-47
2020/12/29 03:05:16;;;;;;;9.60;7.20;;;1.60;99.90;;;;;;4993865;28;20390;-46
2020/12/29 03:07:41;;;;;;;9.27;6.60;;;1.60;99.90;;;;;;5004445;28;20251;-46
2020/12/29 03:10:09;;;;;;;9.10;6.77;;;1.60;99.90;;;;;;5002476;28;20193;-46
2020/12/29 03:12:40;;;;;;;9.07;6.90;;;1.60;99.90;;;;;;5005449;28;20178;-49
2020/12/29 03:15:07;;;;;;;7.60;6.40;;;1.70;99.90;;;;;;5002230;28;20465;-44
2020/12/29 03:17:34;;;;;;;9.00;6.77;;;1.70;99.90;;;;;;5005622;28;20228;-48
2020/12/29 03:20:00;;;;;;;9.03;7.10;;;1.60;99.90;;;;;;4990348;28;20212;-47
2020/12/29 03:22:25;;;;;;;7.80;6.97;;;1.70;99.90;;;;;;5005339;28;20186;-49
2020/12/29 03:24:51;;;;;;;8.83;6.53;;;1.70;99.90;;;;;;5001480;28;20562;-47
2020/12/29 03:27:16;;;;;;;7.67;6.20;;;1.70;99.90;;;;;;5004159;28;20184;-46
2020/12/29 03:29:42;;;;;;;8.27;6.97;;;1.70;99.90;;;;;;5004018;28;20193;-46
2020/12/29 03:32:07;;;;;;;10.73;7.13;;;1.70;99.90;;;;;;4984605;28;20188;-44
2020/12/29 03:34:38;;;;;;;9.03;7.07;;;1.70;99.90;;;;;;5005188;28;20176;-47
2020/12/29 03:37:06;;;;;;;9.20;6.87;;;1.70;99.90;;;;;;4991462;28;20602;-48
2020/12/29 03:39:31;;;;;;;7.60;6.47;;;1.60;99.90;;;;;;5004593;28;20207;-48
2020/12/29 03:41:57;;;;;;;6.77;6.03;;;1.70;99.90;;;;;;5001754;28;20188;-44
2020/12/29 03:44:23;;;;;;;7.73;6.70;;;1.70;99.90;;;;;;5005608;28;20492;-46
2020/12/29 03:46:48;;;;;;;9.50;7.47;;;1.70;99.90;;;;;;5002789;28;20510;-46
2020/12/29 03:49:13;;;;;;;8.47;6.20;;;1.70;99.90;;;;;;5005534;28;20180;-50
2020/12/29 03:51:39;;;;;;;8.37;6.13;;;1.70;99.90;;;;;;4996132;28;20610;-44
2020/12/29 03:54:04;;;;;;;7.37;6.03;;;1.70;99.90;;;;;;5001880;28;20501;-47
2020/12/29 03:56:30;;;;;;;7.73;6.67;;;1.70;99.90;;;;;;5004670;28;20210;-46
2020/12/29 03:58:55;;;;;;;8.40;6.60;;;1.80;99.90;;;;;;5000530;28;20191;-47
2020/12/29 04:01:21;;;;;;;9.20;6.80;;;1.70;99.90;;;;;;5005733;28;20764;-47
2020/12/29 04:03:46;;;;;;;8.33;6.30;;;1.70;99.90;;;;;;5002590;28;20208;-46
2020/12/29 04:06:12;;;;;;;9.00;7.00;;;1.70;99.90;;;;;;4991284;28;20398;-50
2020/12/29 04:08:38;;;;;;;7.40;5.87;;;1.70;99.90;;;;;;5004120;28;20248;-47
2020/12/29 04:11:04;;;;;;;7.83;5.97;;;1.70;99.90;;;;;;5000708;28;20374;-46
2020/12/29 04:13:29;;;;;;;8.87;6.33;;;1.70;99.90;;;;;;5004689;28;20180;-47
2020/12/29 04:15:55;;;;;;;6.33;5.73;;;1.70;99.90;;;;;;5000862;28;20183;-46
2020/12/29 04:18:20;;;;;;;6.60;5.90;;;1.70;99.90;;;;;;5004200;28;20180;-47
2020/12/29 04:20:45;;;;;;;7.80;6.27;;;1.70;99.90;;;;;;5001437;28;20622;-47
2020/12/29 04:23:11;;;;;;;7.07;6.37;;;1.70;99.90;;;;;;4991087;28;20211;-44
2020/12/29 04:25:36;;;;;;;7.97;6.37;;;1.70;99.90;;;;;;5004118;28;20192;-46
2020/12/29 04:28:02;;;;;;;7.63;6.17;;;1.70;99.90;;;;;;5001347;28;20343;-50
2020/12/29 04:30:27;;;;;;;6.73;6.03;;;1.80;99.90;;;;;;5005361;28;20499;-45
2020/12/29 04:32:53;;;;;;;6.63;6.03;;;1.80;99.90;;;;;;5000753;28;20230;-46
2020/12/29 04:35:18;;;;;;;6.93;5.73;;;1.80;99.90;;;;;;5003317;28;20213;-47
2020/12/29 04:37:44;;;;;;;7.90;6.57;;;1.80;99.90;;;;;;4991901;28;20660;-47
2020/12/29 04:40:09;;;;;;;7.47;6.03;;;1.80;99.90;;;;;;5001029;28;20226;-49
2020/12/29 04:42:35;;;;;;;6.87;5.57;;;1.80;99.90;;;;;;5005566;28;20698;-47
2020/12/29 04:45:01;;;;;;;6.67;5.63;;;1.80;99.90;;;;;;4999408;28;20326;-48
2020/12/29 04:47:28;;;;;;;7.33;6.23;;;1.80;99.90;;;;;;5005776;28;20177;-48
2020/12/29 04:49:57;;;;;;;6.03;5.43;;;1.80;99.90;;;;;;5000528;28;20230;-47
2020/12/29 04:52:24;;;;;;;8.07;6.07;;;1.80;99.90;;;;;;5003534;28;20184;-47
2020/12/29 04:54:54;;;;;;;6.90;5.67;;;1.80;99.90;;;;;;4990449;28;20224;-49
2020/12/29 04:57:22;;;;;;;7.83;5.93;;;1.80;99.90;;;;;;5003368;28;20176;-51
2020/12/29 04:59:47;;;;;;;6.77;5.73;;;1.80;99.90;;;;;;5001057;28;20219;-46
2020/12/29 05:02:13;;;;;;;8.63;6.57;;;1.80;99.90;;;;;;5001789;28;20741;-48
2020/12/29 05:04:39;;;;;;;7.60;6.23;;;1.80;99.90;;;;;;5003151;28;20204;-48
2020/12/29 05:07:04;;;;;;;8.30;6.23;;;1.80;99.90;;;;;;4999685;28;20470;-44
2020/12/29 05:09:32;;;;;;;8.07;6.83;;;1.80;99.90;;;;;;4993335;28;20299;-45
2020/12/29 05:11:57;;;;;;;7.47;6.23;;;1.80;99.90;;;;;;4999155;28;20172;-51
2020/12/29 05:14:23;;;;;;;10.97;7.23;;;1.80;99.90;;;;;;5003631;28;20189;-46
2020/12/29 05:16:50;;;;;;;9.07;7.10;;;1.80;99.90;;;;;;5002264;28;20184;-47
2020/12/29 05:19:18;;;;;;;9.63;7.47;;;1.80;99.90;;;;;;5003897;28;20761;-52
2020/12/29 05:21:44;;;;;;;8.00;7.00;;;1.80;99.90;;;;;;5002085;28;20632;-49
2020/12/29 05:24:13;;;;;;;9.57;7.77;;;1.80;99.90;;;;;;4990151;28;20465;-46
2020/12/29 05:26:39;;;;;;;7.57;5.93;;;1.80;99.90;;;;;;5003018;28;20188;-47
2020/12/29 05:29:07;;;;;;;10.03;6.80;;;1.80;99.90;;;;;;5001213;28;20857;-45
2020/12/29 05:31:34;;;;;;;8.40;6.40;;;1.80;99.90;;;;;;5003497;28;20229;-47
2020/12/29 05:34:00;;;;;;;9.83;7.67;;;1.80;99.90;;;;;;4999777;28;20645;-50
2020/12/29 05:36:27;;;;;;;9.17;7.47;;;1.80;99.90;;;;;;5004537;28;20408;-48
2020/12/29 05:39:04;;;;;;;8.93;7.20;;;1.80;99.90;;;;;;4991943;28;20518;-51
2020/12/29 05:41:31;;;;;;;8.27;7.23;;;1.80;99.90;;;;;;5001155;28;20539;-45
2020/12/29 05:44:01;;;;;;;9.23;6.80;;;1.80;99.90;;;;;;4998764;28;20196;-53
2020/12/29 05:46:29;;;;;;;11.33;7.73;;;1.80;99.90;;;;;;5004751;28;20179;-50
2020/12/29 05:48:55;;;;;;;8.07;6.10;;;1.80;99.90;;;;;;5001739;28;20642;-44
2020/12/29 05:51:22;;;;;;;10.40;7.63;;;1.80;99.90;;;;;;5005106;28;20204;-48
2020/12/29 05:53:48;;;;;;;10.60;7.67;;;1.80;99.90;;;;;;5003127;28;20255;-49
2020/12/29 05:56:13;;;;;;;9.77;7.47;;;1.90;99.90;;;;;;4993632;28;20535;-47
2020/12/29 05:58:41;;;;;;;9.50;7.73;;;1.90;99.90;;;;;;5003009;28;20183;-50
2020/12/29 06:01:08;;;;;;;10.70;7.70;;;1.90;99.90;;;;;;5004183;28;20234;-50
2020/12/29 06:03:35;;;;;;;9.37;7.40;;;1.90;99.90;;;;;;5008546;28;20222;-50
2020/12/29 06:06:06;;;;;;;10.10;7.47;;;1.90;99.90;;;;;;5004550;28;20378;-45
2020/12/29 06:08:35;;;;;;;11.00;7.97;;;1.90;99.90;;;;;;5006675;28;20172;-48
2020/12/29 06:11:04;;;;;;;8.57;6.87;;;1.90;99.90;;;;;;4992209;28;20541;-48
2020/12/29 06:13:36;;;;;;;10.33;7.40;;;1.90;99.90;;;;;;5006650;28;20700;-48
2020/12/29 06:16:02;;;;;;;10.57;7.60;;;1.90;99.90;;;;;;5002256;28;20169;-48
2020/12/29 06:18:43;;;;;;;10.37;7.20;;;1.90;99.90;;;;;;5006846;28;20226;-48
2020/12/29 06:21:10;;;;;;;10.33;7.83;;;1.90;99.90;;;;;;5002803;28;20770;-47
2020/12/29 06:23:47;;;;;;;13.60;8.00;;;1.90;99.90;;;;;;5006962;28;20204;-46
2020/12/29 06:26:20;;;;;;;10.07;7.53;;;1.90;99.90;;;;;;4996214;28;20218;-52
2020/12/29 06:28:50;;;;;;;8.00;6.90;;;1.90;99.90;;;;;;4999005;28;20273;-51
2020/12/29 06:31:27;;;;;;;9.27;7.33;;;1.90;99.90;;;;;;5005125;28;20489;-48
2020/12/29 06:33:55;;;;;;;11.00;7.53;;;1.90;99.90;;;;;;5003247;28;20190;-47
2020/12/29 06:36:23;;;;;;;11.60;7.93;;;2.00;99.90;;;;;;5006076;28;20226;-45
2020/12/29 06:38:50;;;;;;;10.73;7.67;;;2.00;99.90;;;;;;5005171;28;20227;-47
2020/12/29 06:41:18;;;;;;;10.80;7.27;;;2.00;99.90;;;;;;5005497;28;20185;-47
2020/12/29 06:43:45;;;;;;;10.23;7.43;;;2.00;99.90;;;;;;4991872;28;20350;-49
2020/12/29 06:46:12;;;;;;;11.63;7.60;;;2.00;99.90;;;;;;5006994;28;20869;-48
2020/12/29 06:48:38;;;;;;;10.60;7.50;;;2.00;99.90;;;;;;5005670;28;20180;-52
2020/12/29 06:51:16;;;;;;;10.47;7.40;;;1.90;99.90;;;;;;4998130;28;20436;-47
2020/12/29 06:53:42;;;;;;;10.03;7.90;;;1.90;99.90;;;;;;5005317;28;20181;-48
2020/12/29 06:56:18;;;;;;;10.97;8.17;;;2.00;99.90;;;;;;5002985;28;20394;-47
2020/12/29 06:58:44;;;;;;;11.73;8.13;;;2.00;99.90;;;;;;4994060;28;20195;-47
2020/12/29 07:01:27;;;;;;;9.03;7.07;;;2.00;99.90;;;;;;5003402;28;20239;-51
2020/12/29 07:04:04;;;;;;;11.37;7.60;;;2.00;99.90;;;;;;5004407;28;20732;-45
2020/12/29 07:06:31;;;;;;;10.37;7.10;;;2.00;99.90;;;;;;4997739;28;20188;-46
2020/12/29 07:09:20;;;;;;;10.77;7.33;;;2.00;99.90;;;;;;5000515;28;20238;-49
2020/12/29 07:12:07;;;;;;;9.87;7.67;;;2.10;99.90;;;;;;4969580;28;20239;-51
2020/12/29 07:14:34;;;;;;;9.23;7.23;;;2.10;99.90;;;;;;5004191;28;20189;-50
2020/12/29 07:17:00;;;;;;;10.83;7.57;;;2.00;99.90;;;;;;5001272;28;20295;-47
2020/12/29 07:19:27;;;;;;;12.10;8.47;;;2.00;99.90;;;;;;5004448;28;20664;-48
2020/12/29 07:21:54;;;;;;;16.83;8.77;;;2.10;99.90;;;;;;5001708;28;20793;-50
2020/12/29 07:24:20;;;;;;;10.03;7.60;;;2.10;99.90;;;;;;5004142;28;20743;-47
2020/12/29 07:26:45;;;;;;;10.70;8.10;;;2.10;99.90;;;;;;5006536;28;20259;-46
2020/12/29 07:29:11;;;;;;;11.27;8.20;;;2.10;99.90;;;;;;4997214;28;20291;-51
2020/12/29 07:31:41;;;;;;;11.03;8.23;;;2.10;99.90;;;;;;5009635;28;20212;-50
2020/12/29 07:34:12;;;;;;;10.97;7.90;;;2.10;99.90;;;;;;5023466;28;20260;-48
2020/12/29 07:36:45;;;;;;;12.90;9.00;;;2.10;99.90;;;;;;5001897;28;20196;-50
2020/12/29 07:39:17;;;;;;;12.23;8.33;;;2.10;99.90;;;;;;5000220;28;20203;-50
2020/12/29 07:41:43;;;;;;;12.77;8.17;;;2.20;99.90;;;;;;4997442;28;20975;-50
2020/12/29 07:44:10;;;;;;;14.57;8.60;;;2.10;99.90;;;;;;4991329;28;20227;-47
2020/12/29 07:46:35;;;;;;;11.70;8.33;;;2.10;99.90;;;;;;5001208;28;20180;-49
2020/12/29 07:49:01;;;;;;;14.03;8.37;;;2.20;99.90;;;;;;5004640;28;20254;-49
2020/12/29 07:51:27;;;;;;;14.03;8.67;;;2.20;99.90;;;;;;5007355;28;20522;-51
2020/12/29 07:53:53;;;;;;;14.93;9.93;;;2.20;99.90;;;;;;4998050;28;20764;-52
2020/12/29 07:56:19;;;;;;;14.33;8.87;;;2.20;99.90;;;;;;5006050;28;20534;-46
2020/12/29 07:58:45;;;;;;;14.97;9.33;;;2.20;99.90;;;;;;4996771;28;20279;-46
2020/12/29 08:01:14;;;;;;;15.07;9.50;;;2.20;99.90;;;;;;4994443;28;20223;-46
2020/12/29 08:03:39;;;;;;;19.53;9.90;;;2.20;99.90;;;;;;5001150;28;20561;-54
2020/12/29 08:06:14;;;;;;;19.13;9.57;;;2.20;99.90;;;;;;5004890;28;20181;-47
2020/12/29 08:08:41;;;;;;;14.37;9.03;;;2.20;99.90;;;;;;4996448;28;20199;-53
2020/12/29 08:11:08;;;;;;;15.03;9.50;;;2.20;99.90;;;;;;5005117;28;20192;-48
2020/12/29 08:13:34;;;;;;;18.47;10.23;;;2.20;99.90;;;;;;4999341;28;20189;-54
2020/12/29 08:15:59;;;;;;;17.77;9.80;;;2.30;99.90;;;;;;4989285;28;22039;-47
2020/12/29 08:18:25;;;;;;;15.63;9.77;;;2.30;99.90;;;;;;5004491;28;20176;-48
2020/12/29 08:20:56;;;;;;;17.33;10.50;;;2.20;99.90;;;;;;5016659;28;20199;-49
2020/12/29 08:23:23;;;;;;;20.93;11.73;;;2.30;99.90;;;;;;5012358;28;20280;-53
2020/12/29 08:25:58;;;;;;;17.27;10.40;;;2.30;99.90;;;;;;5013662;28;20769;-50
2020/12/29 08:28:26;;;;;;;24.03;11.73;;;2.30;99.90;;;;;;5016821;28;20183;-49
2020/12/29 08:30:53;;;;;;;22.70;11.63;;;2.30;99.90;;;;;;5003494;28;20275;-47
2020/12/29 08:33:22;;;;;;;17.97;11.80;;;2.30;99.90;;;;;;5002564;28;20278;-49
2020/12/29 08:35:54;;;;;;;19.57;11.27;;;2.30;99.90;;;;;;5020884;28;20947;-50
2020/12/29 08:38:35;;;;;;;21.10;11.77;;;2.40;99.90;;;;;;5024445;28;20167;-49
2020/12/29 08:41:24;;;;;;;28.27;11.67;;;2.40;99.90;;;;;;5001877;28;20199;-48
2020/12/29 08:43:52;;;;;;;21.63;12.30;;;2.40;99.90;;;;;;5000575;28;20219;-49
2020/12/29 08:46:22;;;;;;;22.23;12.67;;;2.40;99.90;;;;;;5005633;28;20188;-46
2020/12/29 08:48:55;;;;;;;20.03;12.40;;;2.50;99.90;;;;;;4990025;28;20944;-47
2020/12/29 08:51:27;;;;;;;24.43;13.33;;;2.50;99.90;;;;;;5004284;28;20215;-45
2020/12/29 08:53:53;;;;;;;24.00;13.47;;;2.50;99.90;;;;;;4997156;28;20231;-46
2020/12/29 08:56:26;;;;;;;23.07;12.80;;;2.50;99.90;;;;;;5004502;28;20185;-53
2020/12/29 08:58:54;;;;;;;23.87;13.77;;;2.60;99.90;;;;;;4991908;28;22863;-49
2020/12/29 09:01:40;;;;;;;26.00;14.07;;;2.60;99.90;;;;;;5015325;28;20224;-50
2020/12/29 09:04:26;;;;;;;22.33;13.43;;;2.70;99.90;;;;;;4995936;28;20227;-48
2020/12/29 09:07:12;;;;;;;31.00;13.27;;;2.70;99.90;;;;;;4998246;28;20663;-49
2020/12/29 09:09:52;;;;;;;23.27;13.07;;;2.80;99.90;;;;;;5008389;28;20215;-48
2020/12/29 09:12:27;;;;;;;22.70;13.27;;;2.80;99.90;;;;;;5003601;28;20188;-45
2020/12/29 09:15:07;;;;;;;24.47;13.23;;;2.80;99.90;;;;;;4997308;28;20286;-50
2020/12/29 09:17:35;;;;;;;24.63;14.33;;;2.80;99.90;;;;;;5021713;28;20249;-53
2020/12/29 09:20:10;;;;;;;26.40;14.50;;;2.90;99.90;;;;;;5000611;28;20920;-47
2020/12/29 09:23:02;;;;;;;24.53;14.50;;;2.90;99.90;;;;;;5003888;28;20727;-45
2020/12/29 09:25:28;;;;;;;23.97;14.10;;;3.00;99.90;;;;;;4999040;28;20208;-51
2020/12/29 09:28:08;;;;;;;27.23;14.73;;;3.00;99.90;;;;;;5008738;28;20180;-47
2020/12/29 09:30:34;;;;;;;23.73;14.73;;;3.00;99.90;;;;;;5008148;28;20294;-50
2020/12/29 09:32:59;;;;;;;27.73;14.60;;;3.10;99.90;;;;;;5013719;28;20259;-46
2020/12/29 09:35:28;;;;;;;23.97;14.13;;;3.10;99.90;;;;;;4995243;28;20200;-47
2020/12/29 09:37:58;;;;;;;28.23;15.53;;;3.10;99.90;;;;;;5000317;28;20173;-46
2020/12/29 09:40:25;;;;;;;27.63;15.67;;;3.10;99.90;;;;;;4999136;28;20212;-49
2020/12/29 09:42:50;;;;;;;26.67;15.33;;;3.20;99.90;;;;;;5007348;28;20194;-47
2020/12/29 09:45:17;;;;;;;28.20;15.57;;;3.20;99.90;;;;;;5001538;28;20216;-48
2020/12/29 09:47:43;;;;;;;28.03;15.90;;;3.20;99.90;;;;;;4999492;28;20912;-47
2020/12/29 09:50:08;;;;;;;27.13;15.63;;;3.30;99.90;;;;;;4989788;28;20276;-46
2020/12/29 09:52:34;;;;;;;27.23;16.73;;;3.30;99.90;;;;;;4999335;28;20189;-52
2020/12/29 09:54:59;;;;;;;27.40;15.77;;;3.30;99.90;;;;;;5014163;28;20896;-49
2020/12/29 09:57:25;;;;;;;26.80;15.03;;;3.40;99.90;;;;;;4999086;28;20282;-47
2020/12/29 09:59:51;;;;;;;26.70;15.77;;;3.40;99.90;;;;;;5014618;28;20981;-50
2020/12/29 10:02:16;;;;;;;27.23;17.00;;;3.40;99.90;;;;;;5003896;28;20180;-46
2020/12/29 10:04:41;;;;;;;25.90;16.57;;;3.40;99.90;;;;;;4988491;28;20212;-50
2020/12/29 10:07:07;;;;;;;28.77;16.30;;;3.50;99.90;;;;;;5003154;28;20177;-48
2020/12/29 10:09:32;;;;;;;26.80;16.80;;;3.50;99.90;;;;;;5000016;28;20721;-51
2020/12/29 10:11:58;;;;;;;25.97;15.80;;;3.50;99.90;;;;;;4997239;28;20985;-47
2020/12/29 10:14:23;;;;;;;25.60;15.47;;;3.50;99.90;;;;;;4998579;28;20203;-51
2020/12/29 10:16:49;;;;;;;28.07;16.30;;;3.60;99.90;;;;;;4996217;28;20192;-48
2020/12/29 10:19:14;;;;;;;27.63;16.83;;;3.50;99.90;;;;;;5003074;28;20215;-46
2020/12/29 10:21:43;;;;;;;25.67;15.17;;;3.60;99.90;;;;;;4987964;28;20200;-50
2020/12/29 10:24:11;;;;;;;25.27;15.43;;;3.60;99.90;;;;;;5003008;28;20254;-46
2020/12/29 10:26:37;;;;;;;25.57;15.93;;;3.60;99.90;;;;;;4999892;28;20185;-48
2020/12/29 10:29:02;;;;;;;25.20;14.17;;;3.70;99.90;;;;;;4997868;28;20196;-48
2020/12/29 10:31:28;;;;;;;31.63;16.83;;;3.60;99.90;;;;;;5000282;28;20247;-48
2020/12/29 10:33:54;;;;;;;35.17;18.37;;;3.70;99.90;;;;;;5007033;28;20189;-50
2020/12/29 10:36:20;;;;;;;38.33;18.53;;;3.70;99.90;;;;;;5007250;28;20602;-49
2020/12/29 10:38:45;;;;;;;31.80;17.07;;;3.70;99.90;;;;;;5005265;28;20256;-47
2020/12/29 10:41:11;;;;;;;26.97;16.17;;;3.80;99.90;;;;;;5022768;28;20196;-50
2020/12/29 10:43:36;;;;;;;26.20;15.83;;;3.80;99.90;;;;;;4999822;28;20928;-47
2020/12/29 10:46:02;;;;;;;22.90;14.80;;;3.80;99.90;;;;;;5014906;28;20188;-50
2020/12/29 10:48:27;;;;;;;33.00;15.40;;;3.80;99.90;;;;;;4995316;28;20197;-51
2020/12/29 10:50:53;;;;;;;24.53;12.63;;;3.80;99.90;;;;;;4999278;28;20241;-46
2020/12/29 10:53:18;;;;;;;33.73;14.97;;;3.80;99.90;;;;;;4991659;28;20196;-53
2020/12/29 10:55:44;;;;;;;24.93;13.67;;;3.80;99.90;;;;;;5010667;28;20180;-52
2020/12/29 10:58:09;;;;;;;33.60;15.33;;;3.90;99.90;;;;;;5018994;28;20542;-48
2020/12/29 11:00:34;;;;;;;24.00;13.93;;;3.90;99.90;;;;;;4997164;28;20200;-48
2020/12/29 11:03:00;;;;;;;17.03;11.90;;;3.90;99.90;;;;;;5002672;28;20185;-46
2020/12/29 11:05:25;;;;;;;48.33;16.63;;;3.90;99.90;;;;;;5003557;28;20219;-53
2020/12/29 11:07:51;;;;;;;36.00;16.30;;;3.90;99.90;;;;;;4994444;28;20200;-45
2020/12/29 11:10:16;;;;;;;41.30;16.77;;;4.00;99.90;;;;;;5005014;28;20209;-52
2020/12/29 11:12:42;;;;;;;37.13;15.47;;;4.00;99.90;;;;;;5002064;28;20177;-48
2020/12/29 11:15:07;;;;;;;36.07;14.80;;;4.00;99.90;;;;;;5006158;28;20220;-51
2020/12/29 11:17:33;;;;;;;35.90;17.30;;;4.00;99.90;;;;;;4995100;28;20185;-54
2020/12/29 11:20:00;;;;;;;26.13;13.50;;;4.00;99.90;;;;;;5004621;28;20727;-49
2020/12/29 11:22:26;;;;;;;32.67;13.53;;;4.10;99.90;;;;;;4996407;28;20200;-55
2020/12/29 11:24:51;;;;;;;21.67;12.77;;;4.10;99.90;;;;;;5000070;28;21014;-55
2020/12/29 11:27:17;;;;;;;47.80;16.73;;;4.10;99.90;;;;;;5005024;28;20196;-56
2020/12/29 11:29:42;;;;;;;30.50;14.97;;;4.10;99.90;;;;;;5001439;28;20189;-52
2020/12/29 11:32:07;;;;;;;33.07;14.67;;;4.20;99.90;;;;;;5000829;28;20200;-48
2020/12/29 11:34:33;;;;;;;20.47;12.40;;;4.20;99.90;;;;;;4994632;28;20189;-52
2020/12/29 11:36:58;;;;;;;31.67;12.70;;;4.20;99.90;;;;;;5005287;28;20192;-46
2020/12/29 11:39:24;;;;;;;29.63;13.33;;;4.20;99.90;;;;;;4992518;28;20219;-55
2020/12/29 11:41:51;;;;;;;22.17;10.90;;;4.30;99.90;;;;;;5007443;28;20172;-50
2020/12/29 11:44:16;;;;;;;26.97;12.40;;;4.30;99.90;;;;;;5023127;28;20204;-56
2020/12/29 11:46:42;;;;;;;28.63;12.30;;;4.30;99.90;;;;;;4997930;28;20311;-46
2020/12/29 11:49:07;;;;;;;21.80;10.93;;;4.30;99.90;;;;;;5002326;28;20193;-46
2020/12/29 11:51:32;;;;;;;26.17;12.67;;;4.40;99.90;;;;;;5010731;28;20187;-56
2020/12/29 11:53:58;;;;;;;17.27;11.27;;;4.40;99.90;;;;;;5002703;28;20662;-50
2020/12/29 11:56:24;;;;;;;15.33;10.03;;;4.40;99.90;;;;;;4992699;28;20193;-53
2020/12/29 11:58:49;;;;;;;23.10;12.53;;;4.40;99.90;;;;;;5016116;28;20187;-52
2020/12/29 12:01:15;;;;;;;19.63;11.33;;;4.40;99.90;;;;;;5026318;28;20212;-50
2020/12/29 12:03:40;;;;;;;14.50;10.30;;;4.40;99.90;;;;;;4998015;28;20212;-50
2020/12/29 12:06:06;;;;;;;12.67;9.47;;;4.50;99.90;;;;;;5002718;28;20189;-50
2020/12/29 12:08:31;;;;;;;17.27;11.70;;;4.50;99.90;;;;;;5002210;28;20177;-45
2020/12/29 12:10:57;;;;;;;18.27;11.57;;;4.50;99.90;;;;;;4994867;28;20207;-45
2020/12/29 12:13:22;;;;;;;16.97;10.87;;;4.50;99.90;;;;;;5010746;28;20547;-53
2020/12/29 12:15:47;;;;;;;15.93;10.80;;;4.50;99.90;;;;;;5006251;28;20172;-49
2020/12/29 12:18:13;;;;;;;25.23;12.77;;;4.50;99.90;;;;;;5009018;28;20607;-49
2020/12/29 12:20:38;;;;;;;23.20;12.03;;;4.60;99.90;;;;;;5001898;28;20224;-49
2020/12/29 12:23:04;;;;;;;20.27;10.97;;;4.60;99.90;;;;;;5015063;28;20173;-51
2020/12/29 12:25:29;;;;;;;21.80;11.23;;;4.60;99.90;;;;;;4992209;28;20243;-49
2020/12/29 12:27:55;;;;;;;25.47;11.30;;;4.60;99.90;;;;;;5008798;28;20205;-46
2020/12/29 12:30:20;;;;;;;23.37;11.33;;;4.60;99.90;;;;;;5009953;28;20204;-52
2020/12/29 12:32:46;;;;;;;19.23;9.43;;;4.60;99.90;;;;;;4997433;28;20192;-49
2020/12/29 12:35:11;;;;;;;19.20;10.67;;;4.60;99.90;;;;;;5013782;28;20231;-45
2020/12/29 12:37:37;;;;;;;13.90;9.90;;;4.50;99.90;;;;;;5010683;28;20188;-52
2020/12/29 12:40:02;;;;;;;14.17;9.70;;;4.60;99.90;;;;;;5018000;28;20536;-50
2020/12/29 12:42:28;;;;;;;18.53;9.13;;;4.60;99.90;;;;;;4994407;28;20279;-48
2020/12/29 12:44:53;;;;;;;21.57;11.17;;;4.50;99.90;;;;;;5003273;28;20211;-48
2020/12/29 12:47:19;;;;;;;20.93;11.67;;;4.50;99.90;;;;;;5003117;28;20178;-50